sensor_id;sensor_type;location;lat;lon;timestamp;pressure;altitude;pressure_sealevel;temperature;humidity
9035;BME280;4552;43.422;24.592;2023-05-01T00:22:49;99809.84;;;12.02;96.33
9035;BME280;4552;43.422;24.592;2023-05-01T00:25:16;99809.94;;;11.97;96.26
9035;BME280;4552;43.422;24.592;2023-05-01T00:27:43;99820.25;;;12.06;95.72
9035;BME280;4552;43.422;24.592;2023-05-01T00:36:53;99815.56;;;11.81;95.97
9035;BME280;4552;43.422;24.592;2023-05-01T00:39:22;99812.22;;;11.73;97.31
9035;BME280;4552;43.422;24.592;2023-05-01T00:41:49;99809.44;;;11.80;96.94
9035;BME280;4552;43.422;24.592;2023-05-01T00:57:44;99819.34;;;12.07;96.74
9035;BME280;4552;43.422;24.592;2023-05-01T01:06:50;99830.69;;;12.08;98.74
9035;BME280;4552;43.422;24.592;2023-05-01T01:09:26;99835.63;;;12.23;97.88
9035;BME280;4552;43.422;24.592;2023-05-01T01:12:02;99834.63;;;12.29;97.39
9035;BME280;4552;43.422;24.592;2023-05-01T01:18:00;99856.69;;;12.58;96.22
9035;BME280;4552;43.422;24.592;2023-05-01T01:20:37;99853.34;;;12.50;96.68
9035;BME280;4552;43.422;24.592;2023-05-01T01:29:25;99862.53;;;12.71;95.45
9035;BME280;4552;43.422;24.592;2023-05-01T01:32:02;99871.41;;;12.65;95.55
9035;BME280;4552;43.422;24.592;2023-05-01T01:34:39;99845.22;;;12.62;95.65
9035;BME280;4552;43.422;24.592;2023-05-01T01:37:12;99865.88;;;12.77;95.24
9035;BME280;4552;43.422;24.592;2023-05-01T01:39:53;99863.59;;;12.99;94.56
9035;BME280;4552;43.422;24.592;2023-05-01T01:42:24;99866.03;;;13.08;94.59
9035;BME280;4552;43.422;24.592;2023-05-01T01:44:54;99863.38;;;13.09;95.17
9035;BME280;4552;43.422;24.592;2023-05-01T01:47:25;99871.13;;;13.14;94.97
9035;BME280;4552;43.422;24.592;2023-05-01T01:49:55;99861.47;;;13.14;95.11
9035;BME280;4552;43.422;24.592;2023-05-01T01:52:23;99866.00;;;13.43;95.12
9035;BME280;4552;43.422;24.592;2023-05-01T01:54:55;99869.63;;;13.37;94.41
9035;BME280;4552;43.422;24.592;2023-05-01T01:57:24;99873.16;;;13.36;94.20
9035;BME280;4552;43.422;24.592;2023-05-01T01:59:54;99874.03;;;13.37;94.68
9035;BME280;4552;43.422;24.592;2023-05-01T02:02:22;99871.63;;;13.61;93.32
9035;BME280;4552;43.422;24.592;2023-05-01T02:04:51;99870.59;;;13.67;93.58
9035;BME280;4552;43.422;24.592;2023-05-01T02:07:23;99856.22;;;13.48;92.69
9035;BME280;4552;43.422;24.592;2023-05-01T02:09:52;99862.50;;;13.42;93.80
9035;BME280;4552;43.422;24.592;2023-05-01T02:12:19;99871.88;;;13.52;93.25
9035;BME280;4552;43.422;24.592;2023-05-01T02:28:57;99890.09;;;13.26;94.54
9035;BME280;4552;43.422;24.592;2023-05-01T02:31:24;99888.25;;;13.28;95.25
9035;BME280;4552;43.422;24.592;2023-05-01T02:33:51;99887.41;;;13.28;94.87
9035;BME280;4552;43.422;24.592;2023-05-01T02:36:17;99884.06;;;13.21;95.59
9035;BME280;4552;43.422;24.592;2023-05-01T02:38:44;99900.53;;;13.29;94.62
9035;BME280;4552;43.422;24.592;2023-05-01T02:41:16;99893.28;;;13.37;94.11
9035;BME280;4552;43.422;24.592;2023-05-01T02:43:47;99902.31;;;13.27;94.54
9035;BME280;4552;43.422;24.592;2023-05-01T02:46:19;99896.06;;;13.31;95.07
9035;BME280;4552;43.422;24.592;2023-05-01T02:48:47;99906.66;;;13.28;95.08
9035;BME280;4552;43.422;24.592;2023-05-01T02:51:16;99903.72;;;13.40;94.00
9035;BME280;4552;43.422;24.592;2023-05-01T02:53:43;99903.78;;;13.37;94.19
9035;BME280;4552;43.422;24.592;2023-05-01T02:56:11;99910.19;;;13.27;95.00
9035;BME280;4552;43.422;24.592;2023-05-01T02:58:39;99913.28;;;13.09;96.33
9035;BME280;4552;43.422;24.592;2023-05-01T03:21:19;99928.84;;;13.18;98.87
9035;BME280;4552;43.422;24.592;2023-05-01T03:23:46;99928.16;;;13.10;98.86
9035;BME280;4552;43.422;24.592;2023-05-01T03:26:13;99928.22;;;13.07;99.64
9035;BME280;4552;43.422;24.592;2023-05-01T03:28:40;99935.41;;;12.98;100.00
9035;BME280;4552;43.422;24.592;2023-05-01T04:04:47;99978.97;;;13.79;99.14
9035;BME280;4552;43.422;24.592;2023-05-01T04:07:14;99985.72;;;13.89;97.17
9035;BME280;4552;43.422;24.592;2023-05-01T04:09:41;99996.00;;;13.98;97.13
9035;BME280;4552;43.422;24.592;2023-05-01T04:12:08;99992.09;;;13.81;94.83
9035;BME280;4552;43.422;24.592;2023-05-01T04:38:52;100001.56;;;13.53;100.00
9035;BME280;4552;43.422;24.592;2023-05-01T04:41:19;100017.84;;;13.68;100.00
9035;BME280;4552;43.422;24.592;2023-05-01T04:43:46;100008.63;;;13.86;100.00
9035;BME280;4552;43.422;24.592;2023-05-01T05:13:09;100055.59;;;17.71;71.72
9035;BME280;4552;43.422;24.592;2023-05-01T05:15:35;100066.00;;;19.16;66.99
9035;BME280;4552;43.422;24.592;2023-05-01T05:18:02;100066.31;;;19.47;64.36
9035;BME280;4552;43.422;24.592;2023-05-01T05:20:29;100069.22;;;20.47;60.87
9035;BME280;4552;43.422;24.592;2023-05-01T05:22:56;100080.50;;;20.85;57.01
9035;BME280;4552;43.422;24.592;2023-05-01T05:25:23;100068.09;;;20.51;57.95
9035;BME280;4552;43.422;24.592;2023-05-01T05:27:50;100081.44;;;21.01;57.08
9035;BME280;4552;43.422;24.592;2023-05-01T06:19:12;100110.75;;;18.03;70.59
9035;BME280;4552;43.422;24.592;2023-05-01T06:21:40;100115.97;;;18.26;69.25
9035;BME280;4552;43.422;24.592;2023-05-01T06:24:07;100118.56;;;18.27;70.39
9035;BME280;4552;43.422;24.592;2023-05-01T06:26:34;100116.06;;;17.81;70.22
9035;BME280;4552;43.422;24.592;2023-05-01T06:29:00;100113.47;;;17.80;70.49
9035;BME280;4552;43.422;24.592;2023-05-01T06:31:29;100112.56;;;18.44;67.29
9035;BME280;4552;43.422;24.592;2023-05-01T06:33:56;100135.84;;;18.36;67.13
9035;BME280;4552;43.422;24.592;2023-05-01T06:36:25;100136.25;;;18.48;66.66
9035;BME280;4552;43.422;24.592;2023-05-01T06:38:52;100135.09;;;18.94;64.50
9035;BME280;4552;43.422;24.592;2023-05-01T06:41:19;100125.78;;;18.85;64.30
9035;BME280;4552;43.422;24.592;2023-05-01T06:43:46;100134.97;;;18.57;64.71
9035;BME280;4552;43.422;24.592;2023-05-01T06:46:13;100136.72;;;18.78;64.40
9035;BME280;4552;43.422;24.592;2023-05-01T06:48:40;100134.66;;;18.23;65.15
9035;BME280;4552;43.422;24.592;2023-05-01T06:51:07;100154.28;;;18.80;63.77
9035;BME280;4552;43.422;24.592;2023-05-01T06:53:36;100130.06;;;18.88;64.04
9035;BME280;4552;43.422;24.592;2023-05-01T06:56:09;100149.41;;;19.30;63.09
9035;BME280;4552;43.422;24.592;2023-05-01T06:58:36;100145.47;;;19.19;62.13
9035;BME280;4552;43.422;24.592;2023-05-01T07:01:04;100161.31;;;19.40;61.55
9035;BME280;4552;43.422;24.592;2023-05-01T07:03:31;100165.13;;;19.15;61.90
9035;BME280;4552;43.422;24.592;2023-05-01T07:05:58;100151.00;;;18.94;62.10
9035;BME280;4552;43.422;24.592;2023-05-01T07:08:25;100164.41;;;18.91;61.70
9035;BME280;4552;43.422;24.592;2023-05-01T07:10:54;100166.25;;;19.09;61.89
9035;BME280;4552;43.422;24.592;2023-05-01T07:13:21;100179.00;;;19.60;60.00
9035;BME280;4552;43.422;24.592;2023-05-01T07:23:01;100163.19;;;19.38;61.22
9035;BME280;4552;43.422;24.592;2023-05-01T07:25:29;100171.97;;;19.77;59.15
9035;BME280;4552;43.422;24.592;2023-05-01T07:27:58;100175.25;;;19.45;60.51
9035;BME280;4552;43.422;24.592;2023-05-01T07:30:27;100164.84;;;19.41;60.93
9035;BME280;4552;43.422;24.592;2023-05-01T07:32:54;100173.69;;;19.78;60.31
9035;BME280;4552;43.422;24.592;2023-05-01T07:35:22;100170.22;;;20.13;58.35
9035;BME280;4552;43.422;24.592;2023-05-01T07:38:07;100170.59;;;19.87;58.02
9035;BME280;4552;43.422;24.592;2023-05-01T07:40:34;100175.59;;;19.93;58.49
9035;BME280;4552;43.422;24.592;2023-05-01T07:43:01;100172.81;;;19.78;58.47
9035;BME280;4552;43.422;24.592;2023-05-01T07:52:12;100179.94;;;20.31;57.69
9035;BME280;4552;43.422;24.592;2023-05-01T07:54:41;100168.03;;;20.57;57.00
9035;BME280;4552;43.422;24.592;2023-05-01T07:57:09;100174.03;;;20.26;57.67
9035;BME280;4552;43.422;24.592;2023-05-01T08:09:43;100169.25;;;19.79;58.26
9035;BME280;4552;43.422;24.592;2023-05-01T08:12:10;100182.22;;;20.03;58.03
9035;BME280;4552;43.422;24.592;2023-05-01T08:21:18;100193.16;;;19.97;57.79
9035;BME280;4552;43.422;24.592;2023-05-01T08:23:45;100197.59;;;20.15;58.32
9035;BME280;4552;43.422;24.592;2023-05-01T08:26:13;100199.66;;;20.63;56.42
9035;BME280;4552;43.422;24.592;2023-05-01T08:28:40;100200.97;;;20.72;54.79
9035;BME280;4552;43.422;24.592;2023-05-01T08:31:07;100201.28;;;20.66;54.74
9035;BME280;4552;43.422;24.592;2023-05-01T08:33:34;100194.53;;;20.93;54.58
9035;BME280;4552;43.422;24.592;2023-05-01T08:36:01;100187.34;;;20.95;53.64
9035;BME280;4552;43.422;24.592;2023-05-01T08:38:28;100188.00;;;21.00;53.43
9035;BME280;4552;43.422;24.592;2023-05-01T08:40:55;100198.31;;;20.72;54.02
9035;BME280;4552;43.422;24.592;2023-05-01T08:43:25;100185.56;;;20.78;52.66
9035;BME280;4552;43.422;24.592;2023-05-01T08:45:55;100177.00;;;20.54;51.71
9035;BME280;4552;43.422;24.592;2023-05-01T08:48:24;100183.34;;;20.52;51.50
9035;BME280;4552;43.422;24.592;2023-05-01T08:50:54;100192.78;;;20.23;51.11
9035;BME280;4552;43.422;24.592;2023-05-01T08:53:23;100182.81;;;19.91;51.68
9035;BME280;4552;43.422;24.592;2023-05-01T08:55:51;100198.59;;;19.94;50.87
9035;BME280;4552;43.422;24.592;2023-05-01T08:58:20;100181.94;;;19.72;50.49
9035;BME280;4552;43.422;24.592;2023-05-01T09:27:44;100186.63;;;20.40;49.18
9035;BME280;4552;43.422;24.592;2023-05-01T09:56:17;100179.03;;;21.83;46.10
9035;BME280;4552;43.422;24.592;2023-05-01T09:58:44;100174.16;;;21.74;44.99
9035;BME280;4552;43.422;24.592;2023-05-01T10:01:11;100172.03;;;21.32;45.85
9035;BME280;4552;43.422;24.592;2023-05-01T10:03:38;100183.09;;;21.25;46.01
9035;BME280;4552;43.422;24.592;2023-05-01T10:06:05;100176.84;;;20.92;45.55
9035;BME280;4552;43.422;24.592;2023-05-01T10:08:45;100162.44;;;20.79;46.30
9035;BME280;4552;43.422;24.592;2023-05-01T10:11:13;100155.34;;;20.96;45.84
9035;BME280;4552;43.422;24.592;2023-05-01T10:13:44;100168.06;;;21.24;44.79
9035;BME280;4552;43.422;24.592;2023-05-01T10:16:29;100174.34;;;21.71;44.30
9035;BME280;4552;43.422;24.592;2023-05-01T10:18:56;100168.53;;;21.80;42.91
9035;BME280;4552;43.422;24.592;2023-05-01T10:21:24;100171.47;;;21.75;42.84
9035;BME280;4552;43.422;24.592;2023-05-01T10:23:51;100170.91;;;21.69;43.47
9035;BME280;4552;43.422;24.592;2023-05-01T10:26:18;100182.47;;;21.85;43.21
9035;BME280;4552;43.422;24.592;2023-05-01T10:28:48;100176.28;;;22.00;42.34
9035;BME280;4552;43.422;24.592;2023-05-01T10:54:50;100154.56;;;22.37;40.50
9035;BME280;4552;43.422;24.592;2023-05-01T10:57:41;100161.06;;;22.47;40.03
9035;BME280;4552;43.422;24.592;2023-05-01T11:00:12;100163.50;;;22.36;40.68
9035;BME280;4552;43.422;24.592;2023-05-01T11:06:06;100154.25;;;22.12;41.88
9035;BME280;4552;43.422;24.592;2023-05-01T11:08:34;100154.09;;;21.84;42.71
9035;BME280;4552;43.422;24.592;2023-05-01T11:14:17;100150.56;;;22.14;42.12
9035;BME280;4552;43.422;24.592;2023-05-01T11:16:45;100151.50;;;22.13;42.14
9035;BME280;4552;43.422;24.592;2023-05-01T11:19:45;100157.16;;;22.23;42.05
9035;BME280;4552;43.422;24.592;2023-05-01T11:22:14;100150.06;;;22.53;42.70
9035;BME280;4552;43.422;24.592;2023-05-01T11:24:41;100161.06;;;22.92;41.51
9035;BME280;4552;43.422;24.592;2023-05-01T11:27:12;100156.47;;;22.80;41.00
9035;BME280;4552;43.422;24.592;2023-05-01T11:49:37;100142.91;;;22.83;40.57
9035;BME280;4552;43.422;24.592;2023-05-01T11:52:04;100145.41;;;23.00;40.21
9035;BME280;4552;43.422;24.592;2023-05-01T11:54:46;100153.38;;;23.30;39.75
9035;BME280;4552;43.422;24.592;2023-05-01T11:57:13;100138.56;;;22.67;39.56
9035;BME280;4552;43.422;24.592;2023-05-01T11:59:48;100147.69;;;22.92;40.31
9035;BME280;4552;43.422;24.592;2023-05-01T12:02:18;100142.38;;;22.92;38.73
9035;BME280;4552;43.422;24.592;2023-05-01T12:04:47;100146.03;;;22.76;39.71
9035;BME280;4552;43.422;24.592;2023-05-01T12:07:20;100138.38;;;22.70;40.65
9035;BME280;4552;43.422;24.592;2023-05-01T12:09:48;100144.63;;;22.55;40.51
9035;BME280;4552;43.422;24.592;2023-05-01T12:12:16;100149.78;;;22.42;40.73
9035;BME280;4552;43.422;24.592;2023-05-01T12:14:43;100136.19;;;22.17;40.42
9035;BME280;4552;43.422;24.592;2023-05-01T12:40:54;100122.09;;;21.68;40.07
9035;BME280;4552;43.422;24.592;2023-05-01T12:43:28;100120.28;;;22.00;39.34
9035;BME280;4552;43.422;24.592;2023-05-01T12:49:22;100126.16;;;22.36;38.49
9035;BME280;4552;43.422;24.592;2023-05-01T12:51:51;100129.53;;;22.24;37.59
9035;BME280;4552;43.422;24.592;2023-05-01T12:54:19;100109.31;;;22.36;37.31
9035;BME280;4552;43.422;24.592;2023-05-01T12:56:48;100126.28;;;22.64;37.25
9035;BME280;4552;43.422;24.592;2023-05-01T12:59:21;100119.97;;;22.51;37.76
9035;BME280;4552;43.422;24.592;2023-05-01T13:01:56;100116.50;;;22.49;37.67
9035;BME280;4552;43.422;24.592;2023-05-01T13:04:23;100113.75;;;22.35;36.62
9035;BME280;4552;43.422;24.592;2023-05-01T13:06:51;100112.53;;;22.56;36.13
9035;BME280;4552;43.422;24.592;2023-05-01T13:09:21;100107.97;;;22.58;36.30
9035;BME280;4552;43.422;24.592;2023-05-01T13:12:03;100117.84;;;22.56;36.45
9035;BME280;4552;43.422;24.592;2023-05-01T13:14:35;100113.34;;;22.72;36.48
9035;BME280;4552;43.422;24.592;2023-05-01T13:37:51;100116.44;;;23.22;35.85
9035;BME280;4552;43.422;24.592;2023-05-01T13:40:19;100100.50;;;23.49;35.75
9035;BME280;4552;43.422;24.592;2023-05-01T13:42:50;100115.31;;;23.26;35.91
9035;BME280;4552;43.422;24.592;2023-05-01T13:45:18;100119.31;;;23.47;35.43
9035;BME280;4552;43.422;24.592;2023-05-01T13:47:48;100112.34;;;23.31;35.34
9035;BME280;4552;43.422;24.592;2023-05-01T13:50:16;100118.22;;;22.94;35.53
9035;BME280;4552;43.422;24.592;2023-05-01T13:52:44;100110.88;;;22.83;35.17
9035;BME280;4552;43.422;24.592;2023-05-01T13:55:13;100118.69;;;22.72;34.75
9035;BME280;4552;43.422;24.592;2023-05-01T13:57:42;100113.03;;;22.63;35.48
9035;BME280;4552;43.422;24.592;2023-05-01T15:27:57;100127.81;;;22.23;35.49
9035;BME280;4552;43.422;24.592;2023-05-01T15:30:24;100128.78;;;22.22;35.70
9035;BME280;4552;43.422;24.592;2023-05-01T15:32:51;100137.88;;;22.18;35.37
9035;BME280;4552;43.422;24.592;2023-05-01T15:35:20;100137.16;;;22.16;36.04
9035;BME280;4552;43.422;24.592;2023-05-01T15:37:48;100132.41;;;22.05;36.04
9035;BME280;4552;43.422;24.592;2023-05-01T15:40:15;100136.47;;;21.97;36.09
9035;BME280;4552;43.422;24.592;2023-05-01T15:42:42;100137.25;;;21.99;36.02
9035;BME280;4552;43.422;24.592;2023-05-01T15:45:11;100113.59;;;21.93;36.09
9035;BME280;4552;43.422;24.592;2023-05-01T15:54:22;100132.25;;;21.93;35.83
9035;BME280;4552;43.422;24.592;2023-05-01T15:56:52;100129.41;;;21.96;35.85
9035;BME280;4552;43.422;24.592;2023-05-01T15:59:19;100119.88;;;21.76;35.99
9035;BME280;4552;43.422;24.592;2023-05-01T16:39:04;100152.69;;;20.96;36.30
9035;BME280;4552;43.422;24.592;2023-05-01T16:41:34;100133.81;;;20.84;36.32
9035;BME280;4552;43.422;24.592;2023-05-01T16:44:02;100159.03;;;20.94;36.22
9035;BME280;4552;43.422;24.592;2023-05-01T17:38:21;100187.72;;;19.43;41.50
9035;BME280;4552;43.422;24.592;2023-05-01T17:41:27;100187.88;;;19.40;41.46
9035;BME280;4552;43.422;24.592;2023-05-01T17:43:58;100188.75;;;19.41;41.41
9035;BME280;4552;43.422;24.592;2023-05-01T17:46:28;100191.47;;;19.39;41.63
9035;BME280;4552;43.422;24.592;2023-05-01T17:48:56;100184.09;;;19.26;41.87
9035;BME280;4552;43.422;24.592;2023-05-01T17:51:23;100192.66;;;19.32;42.20
9035;BME280;4552;43.422;24.592;2023-05-01T17:54:02;100207.00;;;19.28;42.41
9035;BME280;4552;43.422;24.592;2023-05-01T17:56:29;100205.34;;;19.26;42.20
9035;BME280;4552;43.422;24.592;2023-05-01T17:59:03;100209.78;;;19.25;42.54
9035;BME280;4552;43.422;24.592;2023-05-01T18:01:44;100207.41;;;19.19;42.57
9035;BME280;4552;43.422;24.592;2023-05-01T18:04:12;100211.50;;;19.26;42.39
9035;BME280;4552;43.422;24.592;2023-05-01T18:06:49;100201.81;;;19.05;42.60
9035;BME280;4552;43.422;24.592;2023-05-01T18:09:25;100211.03;;;19.17;42.50
9035;BME280;4552;43.422;24.592;2023-05-01T18:11:52;100215.03;;;19.07;43.02
9035;BME280;4552;43.422;24.592;2023-05-01T18:14:24;100200.50;;;18.95;42.79
9035;BME280;4552;43.422;24.592;2023-05-01T18:48:36;100256.06;;;18.35;43.67
9035;BME280;4552;43.422;24.592;2023-05-01T18:51:03;100252.66;;;18.31;43.61
9035;BME280;4552;43.422;24.592;2023-05-01T18:53:44;100255.47;;;18.50;43.56
9035;BME280;4552;43.422;24.592;2023-05-01T18:56:14;100255.09;;;18.59;43.15
9035;BME280;4552;43.422;24.592;2023-05-01T18:58:43;100253.25;;;18.61;43.28
9035;BME280;4552;43.422;24.592;2023-05-01T19:01:10;100255.16;;;18.57;43.43
9035;BME280;4552;43.422;24.592;2023-05-01T19:03:38;100260.53;;;18.56;43.56
9035;BME280;4552;43.422;24.592;2023-05-01T19:06:05;100262.69;;;18.46;43.67
9035;BME280;4552;43.422;24.592;2023-05-01T19:08:34;100249.16;;;18.31;44.14
9035;BME280;4552;43.422;24.592;2023-05-01T19:11:02;100269.31;;;18.35;43.68
9035;BME280;4552;43.422;24.592;2023-05-01T19:14:08;100261.63;;;18.29;44.35
9035;BME280;4552;43.422;24.592;2023-05-01T19:16:42;100267.41;;;18.17;44.46
9035;BME280;4552;43.422;24.592;2023-05-01T19:19:12;100273.88;;;18.31;43.87
9035;BME280;4552;43.422;24.592;2023-05-01T19:21:39;100273.69;;;18.36;43.88
9035;BME280;4552;43.422;24.592;2023-05-01T19:24:07;100260.47;;;18.13;44.23
9035;BME280;4552;43.422;24.592;2023-05-01T19:26:53;100268.53;;;18.10;44.12
9035;BME280;4552;43.422;24.592;2023-05-01T19:29:20;100271.88;;;18.15;44.32
9035;BME280;4552;43.422;24.592;2023-05-01T19:58:44;100267.31;;;17.74;45.68
9035;BME280;4552;43.422;24.592;2023-05-01T20:37:01;100268.84;;;16.27;53.49
9035;BME280;4552;43.422;24.592;2023-05-01T20:39:28;100264.78;;;16.16;54.06
9035;BME280;4552;43.422;24.592;2023-05-01T20:41:55;100265.66;;;16.16;54.49
9035;BME280;4552;43.422;24.592;2023-05-01T20:44:23;100253.09;;;15.97;55.98
9035;BME280;4552;43.422;24.592;2023-05-01T21:37:19;100278.19;;;16.10;52.65
9035;BME280;4552;43.422;24.592;2023-05-01T21:39:46;100290.25;;;16.18;52.09
9035;BME280;4552;43.422;24.592;2023-05-01T21:42:14;100292.09;;;16.16;52.56
9035;BME280;4552;43.422;24.592;2023-05-01T21:44:41;100277.34;;;16.09;52.22
9035;BME280;4552;43.422;24.592;2023-05-01T21:47:09;100297.88;;;16.00;52.74
9035;BME280;4552;43.422;24.592;2023-05-01T21:49:37;100294.25;;;16.02;52.54
9035;BME280;4552;43.422;24.592;2023-05-01T21:52:27;100292.38;;;16.07;52.48
9035;BME280;4552;43.422;24.592;2023-05-01T21:54:55;100305.19;;;15.90;53.16
9035;BME280;4552;43.422;24.592;2023-05-01T21:57:28;100294.91;;;15.81;53.70
9035;BME280;4552;43.422;24.592;2023-05-01T21:59:55;100304.72;;;15.76;54.07
9035;BME280;4552;43.422;24.592;2023-05-01T22:12:32;100312.13;;;15.63;55.41
9035;BME280;4552;43.422;24.592;2023-05-01T22:15:04;100310.53;;;15.58;55.77
9035;BME280;4552;43.422;24.592;2023-05-01T22:17:31;100313.47;;;15.47;56.53
9035;BME280;4552;43.422;24.592;2023-05-01T22:20:01;100298.78;;;15.36;57.11
9035;BME280;4552;43.422;24.592;2023-05-01T22:22:30;100311.97;;;15.36;58.32
9035;BME280;4552;43.422;24.592;2023-05-01T22:24:57;100310.84;;;15.14;58.84
9035;BME280;4552;43.422;24.592;2023-05-01T22:27:42;100303.59;;;15.22;58.60
9035;BME280;4552;43.422;24.592;2023-05-01T22:30:10;100307.03;;;15.24;59.17
9035;BME280;4552;43.422;24.592;2023-05-01T22:32:37;100311.31;;;15.29;58.45
9035;BME280;4552;43.422;24.592;2023-05-01T22:35:13;100307.31;;;15.13;60.50
9035;BME280;4552;43.422;24.592;2023-05-01T22:37:40;100314.59;;;15.04;60.80
9035;BME280;4552;43.422;24.592;2023-05-01T22:40:08;100301.28;;;14.76;62.86
9035;BME280;4552;43.422;24.592;2023-05-01T22:42:35;100296.16;;;14.69;64.48
9035;BME280;4552;43.422;24.592;2023-05-01T22:45:05;100287.28;;;14.38;67.80
9035;BME280;4552;43.422;24.592;2023-05-01T22:47:35;100302.38;;;14.30;67.70
9035;BME280;4552;43.422;24.592;2023-05-01T22:50:01;100297.13;;;14.30;67.40
9035;BME280;4552;43.422;24.592;2023-05-01T22:52:28;100292.72;;;14.30;68.80
9035;BME280;4552;43.422;24.592;2023-05-01T22:54:55;100296.03;;;13.98;70.85
9035;BME280;4552;43.422;24.592;2023-05-01T22:57:22;100278.53;;;13.96;69.36
9035;BME280;4552;43.422;24.592;2023-05-01T23:00:06;100294.69;;;13.79;71.20
9035;BME280;4552;43.422;24.592;2023-05-01T23:16:02;100296.69;;;13.24;74.51
9035;BME280;4552;43.422;24.592;2023-05-01T23:50:47;100287.75;;;12.84;78.42
9035;BME280;4552;43.422;24.592;2023-05-01T23:53:26;100286.81;;;12.88;78.48
9035;BME280;4552;43.422;24.592;2023-05-01T23:55:53;100297.16;;;12.97;77.92
9035;BME280;4552;43.422;24.592;2023-05-01T23:58:20;100284.13;;;12.91;77.74
